sensor_id;sensor_type;location;lat;lon;timestamp;temperature;humidity
31639;DHT22;18248;51.522;7.020;2022-12-28T00:00:06;6.90;99.90
31639;DHT22;18248;51.522;7.020;2022-12-28T00:03:06;7.00;99.90
31639;DHT22;18248;51.522;7.020;2022-12-28T00:06:06;7.00;99.90
31639;DHT22;18248;51.522;7.020;2022-12-28T00:09:04;7.00;99.90
31639;DHT22;18248;51.522;7.020;2022-12-28T00:12:03;7.00;99.90
31639;DHT22;18248;51.522;7.020;2022-12-28T00:15:05;7.10;99.90
31639;DHT22;18248;51.522;7.020;2022-12-28T00:18:04;7.10;99.90
31639;DHT22;18248;51.522;7.020;2022-12-28T00:21:03;7.10;99.90
31639;DHT22;18248;51.522;7.020;2022-12-28T00:24:03;7.20;99.90
31639;DHT22;18248;51.522;7.020;2022-12-28T00:27:01;7.20;99.90
31639;DHT22;18248;51.522;7.020;2022-12-28T00:30:00;7.20;99.90
31639;DHT22;18248;51.522;7.020;2022-12-28T00:32:59;7.30;99.90
31639;DHT22;18248;51.522;7.020;2022-12-28T00:35:59;7.20;99.90
31639;DHT22;18248;51.522;7.020;2022-12-28T00:38:58;7.30;99.90
31639;DHT22;18248;51.522;7.020;2022-12-28T00:41:57;7.30;99.90
31639;DHT22;18248;51.522;7.020;2022-12-28T00:44:55;7.30;99.90
31639;DHT22;18248;51.522;7.020;2022-12-28T00:47:54;7.20;99.90
31639;DHT22;18248;51.522;7.020;2022-12-28T00:51:00;7.20;99.90
31639;DHT22;18248;51.522;7.020;2022-12-28T00:54:00;7.20;99.90
31639;DHT22;18248;51.522;7.020;2022-12-28T00:57:00;7.10;99.90
31639;DHT22;18248;51.522;7.020;2022-12-28T00:59:58;7.10;99.90
31639;DHT22;18248;51.522;7.020;2022-12-28T01:02:57;7.10;99.90
31639;DHT22;18248;51.522;7.020;2022-12-28T01:05:56;7.10;99.90
31639;DHT22;18248;51.522;7.020;2022-12-28T01:08:54;7.10;99.90
31639;DHT22;18248;51.522;7.020;2022-12-28T01:11:54;7.10;99.90
31639;DHT22;18248;51.522;7.020;2022-12-28T01:14:53;7.10;99.90
31639;DHT22;18248;51.522;7.020;2022-12-28T01:17:51;7.10;99.90
31639;DHT22;18248;51.522;7.020;2022-12-28T01:20:51;7.10;99.90
31639;DHT22;18248;51.522;7.020;2022-12-28T01:23:53;7.10;99.90
31639;DHT22;18248;51.522;7.020;2022-12-28T01:26:52;7.10;99.90
31639;DHT22;18248;51.522;7.020;2022-12-28T01:29:52;7.10;99.90
31639;DHT22;18248;51.522;7.020;2022-12-28T01:32:50;7.00;99.90
31639;DHT22;18248;51.522;7.020;2022-12-28T01:35:49;7.00;99.90
31639;DHT22;18248;51.522;7.020;2022-12-28T01:38:52;7.00;99.90
31639;DHT22;18248;51.522;7.020;2022-12-28T01:41:52;7.00;99.90
31639;DHT22;18248;51.522;7.020;2022-12-28T01:44:51;7.00;99.90
31639;DHT22;18248;51.522;7.020;2022-12-28T01:47:54;7.00;99.90
31639;DHT22;18248;51.522;7.020;2022-12-28T01:50:55;7.00;99.90
31639;DHT22;18248;51.522;7.020;2022-12-28T01:53:54;7.10;99.90
31639;DHT22;18248;51.522;7.020;2022-12-28T01:56:57;7.10;99.90
31639;DHT22;18248;51.522;7.020;2022-12-28T02:00:03;7.10;99.90
31639;DHT22;18248;51.522;7.020;2022-12-28T02:03:08;7.20;99.90
31639;DHT22;18248;51.522;7.020;2022-12-28T02:06:10;7.20;99.90
31639;DHT22;18248;51.522;7.020;2022-12-28T02:09:17;7.20;99.90
31639;DHT22;18248;51.522;7.020;2022-12-28T02:12:17;7.30;99.90
31639;DHT22;18248;51.522;7.020;2022-12-28T02:15:15;7.30;99.90
31639;DHT22;18248;51.522;7.020;2022-12-28T02:18:17;7.30;99.90
31639;DHT22;18248;51.522;7.020;2022-12-28T02:21:29;7.40;99.90
31639;DHT22;18248;51.522;7.020;2022-12-28T02:24:52;7.40;99.90
31639;DHT22;18248;51.522;7.020;2022-12-28T02:31:43;7.40;99.90
31639;DHT22;18248;51.522;7.020;2022-12-28T02:38:06;7.50;99.90
31639;DHT22;18248;51.522;7.020;2022-12-28T02:41:11;7.60;99.90
31639;DHT22;18248;51.522;7.020;2022-12-28T02:44:10;7.60;99.90
31639;DHT22;18248;51.522;7.020;2022-12-28T02:47:13;7.60;99.90
31639;DHT22;18248;51.522;7.020;2022-12-28T02:50:45;7.60;99.90
31639;DHT22;18248;51.522;7.020;2022-12-28T02:57:21;7.70;99.90
31639;DHT22;18248;51.522;7.020;2022-12-28T03:10:20;7.80;99.90
31639;DHT22;18248;51.522;7.020;2022-12-28T03:14:12;7.80;99.90
31639;DHT22;18248;51.522;7.020;2022-12-28T03:16:53;7.70;99.90
31639;DHT22;18248;51.522;7.020;2022-12-28T03:20:24;7.70;99.90
31639;DHT22;18248;51.522;7.020;2022-12-28T03:23:43;7.70;99.90
31639;DHT22;18248;51.522;7.020;2022-12-28T03:27:07;7.60;99.90
31639;DHT22;18248;51.522;7.020;2022-12-28T03:30:26;7.60;99.90
31639;DHT22;18248;51.522;7.020;2022-12-28T03:33:48;7.60;99.90
31639;DHT22;18248;51.522;7.020;2022-12-28T03:40:23;7.50;99.90
31639;DHT22;18248;51.522;7.020;2022-12-28T03:43:27;7.50;99.90
31639;DHT22;18248;51.522;7.020;2022-12-28T03:46:46;7.50;99.90
31639;DHT22;18248;51.522;7.020;2022-12-28T03:49:46;7.50;99.90
31639;DHT22;18248;51.522;7.020;2022-12-28T03:52:45;7.50;99.90
31639;DHT22;18248;51.522;7.020;2022-12-28T03:55:44;7.60;99.90
31639;DHT22;18248;51.522;7.020;2022-12-28T03:58:42;7.60;99.90
31639;DHT22;18248;51.522;7.020;2022-12-28T04:01:41;7.60;99.90
31639;DHT22;18248;51.522;7.020;2022-12-28T04:04:41;7.60;99.90
31639;DHT22;18248;51.522;7.020;2022-12-28T04:07:39;7.70;99.90
31639;DHT22;18248;51.522;7.020;2022-12-28T04:10:38;7.70;99.90
31639;DHT22;18248;51.522;7.020;2022-12-28T04:13:37;7.70;99.90
31639;DHT22;18248;51.522;7.020;2022-12-28T04:16:35;7.70;99.90
31639;DHT22;18248;51.522;7.020;2022-12-28T04:19:34;7.70;99.90
31639;DHT22;18248;51.522;7.020;2022-12-28T04:22:34;7.80;99.90
31639;DHT22;18248;51.522;7.020;2022-12-28T04:25:32;7.80;99.90
31639;DHT22;18248;51.522;7.020;2022-12-28T04:28:34;7.80;99.90
31639;DHT22;18248;51.522;7.020;2022-12-28T04:31:33;7.80;99.90
31639;DHT22;18248;51.522;7.020;2022-12-28T04:34:31;7.80;99.90
31639;DHT22;18248;51.522;7.020;2022-12-28T04:37:30;7.80;99.90
31639;DHT22;18248;51.522;7.020;2022-12-28T04:40:28;7.80;99.90
31639;DHT22;18248;51.522;7.020;2022-12-28T04:43:27;7.80;99.90
31639;DHT22;18248;51.522;7.020;2022-12-28T04:46:28;7.80;99.90
31639;DHT22;18248;51.522;7.020;2022-12-28T04:49:28;7.80;99.90
31639;DHT22;18248;51.522;7.020;2022-12-28T04:52:26;7.80;99.90
31639;DHT22;18248;51.522;7.020;2022-12-28T04:55:26;7.80;99.90
31639;DHT22;18248;51.522;7.020;2022-12-28T04:58:26;7.80;99.90
31639;DHT22;18248;51.522;7.020;2022-12-28T05:01:27;7.90;99.90
31639;DHT22;18248;51.522;7.020;2022-12-28T05:04:26;7.80;99.90
31639;DHT22;18248;51.522;7.020;2022-12-28T05:07:27;7.90;99.90
31639;DHT22;18248;51.522;7.020;2022-12-28T05:10:25;7.80;99.90
31639;DHT22;18248;51.522;7.020;2022-12-28T05:13:24;7.90;99.90
31639;DHT22;18248;51.522;7.020;2022-12-28T05:16:25;7.90;99.90
31639;DHT22;18248;51.522;7.020;2022-12-28T05:19:23;7.80;99.90
31639;DHT22;18248;51.522;7.020;2022-12-28T05:22:23;7.80;99.90
31639;DHT22;18248;51.522;7.020;2022-12-28T05:25:22;7.90;99.90
31639;DHT22;18248;51.522;7.020;2022-12-28T05:28:21;7.90;99.90
31639;DHT22;18248;51.522;7.020;2022-12-28T05:31:21;7.90;99.90
31639;DHT22;18248;51.522;7.020;2022-12-28T05:34:20;7.90;99.90
31639;DHT22;18248;51.522;7.020;2022-12-28T05:37:18;8.00;99.90
31639;DHT22;18248;51.522;7.020;2022-12-28T05:40:17;8.00;99.90
31639;DHT22;18248;51.522;7.020;2022-12-28T05:43:16;8.00;99.90
31639;DHT22;18248;51.522;7.020;2022-12-28T05:46:20;8.00;99.90
31639;DHT22;18248;51.522;7.020;2022-12-28T05:49:18;8.10;99.90
31639;DHT22;18248;51.522;7.020;2022-12-28T05:52:17;8.00;99.90
31639;DHT22;18248;51.522;7.020;2022-12-28T05:55:15;8.10;99.90
31639;DHT22;18248;51.522;7.020;2022-12-28T05:58:14;8.10;99.90
31639;DHT22;18248;51.522;7.020;2022-12-28T06:01:15;8.10;99.90
31639;DHT22;18248;51.522;7.020;2022-12-28T06:04:16;8.20;99.90
31639;DHT22;18248;51.522;7.020;2022-12-28T06:07:15;8.20;99.90
31639;DHT22;18248;51.522;7.020;2022-12-28T06:10:13;8.30;99.90
31639;DHT22;18248;51.522;7.020;2022-12-28T06:13:12;8.30;99.90
31639;DHT22;18248;51.522;7.020;2022-12-28T06:16:13;8.30;99.90
31639;DHT22;18248;51.522;7.020;2022-12-28T06:19:12;8.30;99.90
31639;DHT22;18248;51.522;7.020;2022-12-28T06:22:14;8.40;99.90
31639;DHT22;18248;51.522;7.020;2022-12-28T06:25:12;8.40;99.90
31639;DHT22;18248;51.522;7.020;2022-12-28T06:28:11;8.40;99.90
31639;DHT22;18248;51.522;7.020;2022-12-28T06:31:17;8.40;99.90
31639;DHT22;18248;51.522;7.020;2022-12-28T06:34:16;8.40;99.90
31639;DHT22;18248;51.522;7.020;2022-12-28T06:37:16;8.50;99.90
31639;DHT22;18248;51.522;7.020;2022-12-28T06:40:14;8.50;99.90
31639;DHT22;18248;51.522;7.020;2022-12-28T06:43:14;8.50;99.90
31639;DHT22;18248;51.522;7.020;2022-12-28T06:46:15;8.50;99.90
31639;DHT22;18248;51.522;7.020;2022-12-28T06:49:13;8.50;99.90
31639;DHT22;18248;51.522;7.020;2022-12-28T06:52:12;8.60;99.90
31639;DHT22;18248;51.522;7.020;2022-12-28T06:55:10;8.50;99.90
31639;DHT22;18248;51.522;7.020;2022-12-28T06:58:09;8.50;99.90
31639;DHT22;18248;51.522;7.020;2022-12-28T07:01:11;8.60;99.90
31639;DHT22;18248;51.522;7.020;2022-12-28T07:04:11;8.60;99.90
31639;DHT22;18248;51.522;7.020;2022-12-28T07:07:10;8.60;99.90
31639;DHT22;18248;51.522;7.020;2022-12-28T07:10:08;8.60;99.90
31639;DHT22;18248;51.522;7.020;2022-12-28T07:13:07;8.60;99.90
31639;DHT22;18248;51.522;7.020;2022-12-28T07:16:14;8.60;99.90
31639;DHT22;18248;51.522;7.020;2022-12-28T07:19:13;8.60;99.90
31639;DHT22;18248;51.522;7.020;2022-12-28T07:22:13;8.60;99.90
31639;DHT22;18248;51.522;7.020;2022-12-28T07:25:11;8.60;99.90
31639;DHT22;18248;51.522;7.020;2022-12-28T07:28:10;8.70;99.90
31639;DHT22;18248;51.522;7.020;2022-12-28T07:31:11;8.70;99.90
31639;DHT22;18248;51.522;7.020;2022-12-28T07:34:09;8.60;99.90
31639;DHT22;18248;51.522;7.020;2022-12-28T07:37:08;8.70;99.90
31639;DHT22;18248;51.522;7.020;2022-12-28T07:40:07;8.70;99.90
31639;DHT22;18248;51.522;7.020;2022-12-28T07:43:06;8.70;99.90
31639;DHT22;18248;51.522;7.020;2022-12-28T07:46:16;8.70;99.90
31639;DHT22;18248;51.522;7.020;2022-12-28T07:49:15;8.80;99.90
31639;DHT22;18248;51.522;7.020;2022-12-28T07:52:13;8.80;99.90
31639;DHT22;18248;51.522;7.020;2022-12-28T07:55:12;8.80;99.90
31639;DHT22;18248;51.522;7.020;2022-12-28T07:58:11;8.80;99.90
31639;DHT22;18248;51.522;7.020;2022-12-28T08:01:12;8.80;99.90
31639;DHT22;18248;51.522;7.020;2022-12-28T08:04:14;8.80;99.90
31639;DHT22;18248;51.522;7.020;2022-12-28T08:07:13;8.90;99.90
31639;DHT22;18248;51.522;7.020;2022-12-28T08:10:13;8.90;99.90
31639;DHT22;18248;51.522;7.020;2022-12-28T08:13:11;8.90;99.90
31639;DHT22;18248;51.522;7.020;2022-12-28T08:16:12;8.90;99.90
31639;DHT22;18248;51.522;7.020;2022-12-28T08:19:11;8.90;99.90
31639;DHT22;18248;51.522;7.020;2022-12-28T08:22:11;9.00;99.90
31639;DHT22;18248;51.522;7.020;2022-12-28T08:25:10;9.00;99.90
31639;DHT22;18248;51.522;7.020;2022-12-28T08:28:10;9.00;99.90
31639;DHT22;18248;51.522;7.020;2022-12-28T08:31:12;9.00;99.90
31639;DHT22;18248;51.522;7.020;2022-12-28T08:34:13;9.00;99.90
31639;DHT22;18248;51.522;7.020;2022-12-28T08:37:12;9.10;99.90
31639;DHT22;18248;51.522;7.020;2022-12-28T08:40:11;9.10;99.90
31639;DHT22;18248;51.522;7.020;2022-12-28T08:43:09;9.10;99.90
31639;DHT22;18248;51.522;7.020;2022-12-28T08:46:25;9.20;99.90
31639;DHT22;18248;51.522;7.020;2022-12-28T08:49:26;9.20;99.90
31639;DHT22;18248;51.522;7.020;2022-12-28T08:52:24;9.20;99.90
31639;DHT22;18248;51.522;7.020;2022-12-28T08:55:23;9.30;99.90
31639;DHT22;18248;51.522;7.020;2022-12-28T08:58:21;9.30;99.90
31639;DHT22;18248;51.522;7.020;2022-12-28T09:01:23;9.30;99.90
31639;DHT22;18248;51.522;7.020;2022-12-28T09:04:22;9.40;99.90
31639;DHT22;18248;51.522;7.020;2022-12-28T09:07:20;9.40;99.90
31639;DHT22;18248;51.522;7.020;2022-12-28T09:10:20;9.50;99.90
31639;DHT22;18248;51.522;7.020;2022-12-28T09:13:21;9.50;99.90
31639;DHT22;18248;51.522;7.020;2022-12-28T09:16:24;9.60;99.90
31639;DHT22;18248;51.522;7.020;2022-12-28T09:19:23;9.60;99.90
31639;DHT22;18248;51.522;7.020;2022-12-28T09:22:23;9.60;99.90
31639;DHT22;18248;51.522;7.020;2022-12-28T09:25:22;9.60;99.90
31639;DHT22;18248;51.522;7.020;2022-12-28T09:28:22;9.70;99.90
31639;DHT22;18248;51.522;7.020;2022-12-28T09:31:22;9.70;99.90
31639;DHT22;18248;51.522;7.020;2022-12-28T09:34:21;9.70;99.90
31639;DHT22;18248;51.522;7.020;2022-12-28T09:37:19;9.80;99.90
31639;DHT22;18248;51.522;7.020;2022-12-28T09:40:18;9.80;99.90
31639;DHT22;18248;51.522;7.020;2022-12-28T09:43:18;9.80;99.90
31639;DHT22;18248;51.522;7.020;2022-12-28T09:46:19;9.90;99.90
31639;DHT22;18248;51.522;7.020;2022-12-28T09:49:23;9.90;99.90
31639;DHT22;18248;51.522;7.020;2022-12-28T09:56:19;10.00;99.90
31639;DHT22;18248;51.522;7.020;2022-12-28T09:59:20;10.00;99.90
31639;DHT22;18248;51.522;7.020;2022-12-28T10:02:29;10.00;99.90
31639;DHT22;18248;51.522;7.020;2022-12-28T10:05:29;10.00;99.90
31639;DHT22;18248;51.522;7.020;2022-12-28T10:08:28;10.10;99.90
31639;DHT22;18248;51.522;7.020;2022-12-28T10:11:30;10.10;99.90
31639;DHT22;18248;51.522;7.020;2022-12-28T10:14:33;10.10;99.90
31639;DHT22;18248;51.522;7.020;2022-12-28T10:17:32;10.20;99.90
31639;DHT22;18248;51.522;7.020;2022-12-28T10:20:32;10.20;99.90
31639;DHT22;18248;51.522;7.020;2022-12-28T10:23:33;10.20;99.90
31639;DHT22;18248;51.522;7.020;2022-12-28T10:26:34;10.20;99.90
31639;DHT22;18248;51.522;7.020;2022-12-28T10:29:33;10.20;99.90
31639;DHT22;18248;51.522;7.020;2022-12-28T10:32:57;10.30;99.90
31639;DHT22;18248;51.522;7.020;2022-12-28T10:35:56;10.30;99.90
31639;DHT22;18248;51.522;7.020;2022-12-28T10:38:56;10.30;99.90
31639;DHT22;18248;51.522;7.020;2022-12-28T10:41:57;10.40;99.90
31639;DHT22;18248;51.522;7.020;2022-12-28T10:45:03;10.40;99.90
31639;DHT22;18248;51.522;7.020;2022-12-28T10:48:14;10.40;99.90
31639;DHT22;18248;51.522;7.020;2022-12-28T10:51:16;10.40;99.90
31639;DHT22;18248;51.522;7.020;2022-12-28T10:54:24;10.50;99.90
31639;DHT22;18248;51.522;7.020;2022-12-28T11:00:24;10.50;99.90
31639;DHT22;18248;51.522;7.020;2022-12-28T11:03:29;10.50;99.90
31639;DHT22;18248;51.522;7.020;2022-12-28T11:09:33;10.60;99.90
31639;DHT22;18248;51.522;7.020;2022-12-28T11:12:32;10.60;99.90
31639;DHT22;18248;51.522;7.020;2022-12-28T11:15:34;10.60;99.90
31639;DHT22;18248;51.522;7.020;2022-12-28T11:18:34;10.70;99.90
31639;DHT22;18248;51.522;7.020;2022-12-28T11:21:33;10.70;99.90
31639;DHT22;18248;51.522;7.020;2022-12-28T11:24:32;10.70;99.90
31639;DHT22;18248;51.522;7.020;2022-12-28T11:27:32;10.70;99.90
31639;DHT22;18248;51.522;7.020;2022-12-28T11:30:32;10.80;99.90
31639;DHT22;18248;51.522;7.020;2022-12-28T11:33:36;10.80;99.90
31639;DHT22;18248;51.522;7.020;2022-12-28T11:36:39;10.80;99.90
31639;DHT22;18248;51.522;7.020;2022-12-28T11:39:44;10.80;99.90
31639;DHT22;18248;51.522;7.020;2022-12-28T11:42:54;10.80;99.90
31639;DHT22;18248;51.522;7.020;2022-12-28T11:46:00;10.80;99.90
31639;DHT22;18248;51.522;7.020;2022-12-28T11:49:00;10.90;99.90
31639;DHT22;18248;51.522;7.020;2022-12-28T11:55:41;10.90;99.90
31639;DHT22;18248;51.522;7.020;2022-12-28T12:01:40;10.90;99.90
31639;DHT22;18248;51.522;7.020;2022-12-28T12:04:41;10.90;99.90
31639;DHT22;18248;51.522;7.020;2022-12-28T12:07:45;10.90;99.90
31639;DHT22;18248;51.522;7.020;2022-12-28T12:11:20;10.90;99.90
31639;DHT22;18248;51.522;7.020;2022-12-28T12:14:44;10.90;99.90
31639;DHT22;18248;51.522;7.020;2022-12-28T12:21:07;10.90;99.90
31639;DHT22;18248;51.522;7.020;2022-12-28T12:24:46;10.90;99.90
31639;DHT22;18248;51.522;7.020;2022-12-28T12:27:54;10.90;99.90
31639;DHT22;18248;51.522;7.020;2022-12-28T12:30:54;11.00;99.90
31639;DHT22;18248;51.522;7.020;2022-12-28T12:33:57;11.00;99.90
31639;DHT22;18248;51.522;7.020;2022-12-28T12:40:52;11.00;99.90
31639;DHT22;18248;51.522;7.020;2022-12-28T12:44:27;11.00;99.90
31639;DHT22;18248;51.522;7.020;2022-12-28T12:47:40;10.90;99.90
31639;DHT22;18248;51.522;7.020;2022-12-28T12:51:04;10.80;99.90
31639;DHT22;18248;51.522;7.020;2022-12-28T12:54:11;10.80;99.90
31639;DHT22;18248;51.522;7.020;2022-12-28T12:57:20;10.80;99.90
31639;DHT22;18248;51.522;7.020;2022-12-28T13:00:21;10.70;99.90
31639;DHT22;18248;51.522;7.020;2022-12-28T13:03:43;10.70;99.90
31639;DHT22;18248;51.522;7.020;2022-12-28T13:06:42;10.70;99.90
31639;DHT22;18248;51.522;7.020;2022-12-28T13:09:42;10.70;99.90
31639;DHT22;18248;51.522;7.020;2022-12-28T13:12:41;10.60;99.90
31639;DHT22;18248;51.522;7.020;2022-12-28T13:15:42;10.60;99.90
31639;DHT22;18248;51.522;7.020;2022-12-28T13:19:01;10.50;99.90
31639;DHT22;18248;51.522;7.020;2022-12-28T13:22:00;10.50;99.90
31639;DHT22;18248;51.522;7.020;2022-12-28T13:24:59;10.50;99.90
31639;DHT22;18248;51.522;7.020;2022-12-28T13:28:00;10.50;99.90
31639;DHT22;18248;51.522;7.020;2022-12-28T13:34:23;10.40;99.90
31639;DHT22;18248;51.522;7.020;2022-12-28T13:37:22;10.40;99.90
31639;DHT22;18248;51.522;7.020;2022-12-28T13:40:22;10.40;99.90
31639;DHT22;18248;51.522;7.020;2022-12-28T13:46:23;10.40;99.90
31639;DHT22;18248;51.522;7.020;2022-12-28T13:49:22;10.40;99.90
31639;DHT22;18248;51.522;7.020;2022-12-28T13:55:48;10.40;99.90
31639;DHT22;18248;51.522;7.020;2022-12-28T13:58:52;10.40;99.90
31639;DHT22;18248;51.522;7.020;2022-12-28T14:01:52;10.50;99.90
31639;DHT22;18248;51.522;7.020;2022-12-28T14:04:52;10.50;99.90
31639;DHT22;18248;51.522;7.020;2022-12-28T14:07:52;10.50;99.90
31639;DHT22;18248;51.522;7.020;2022-12-28T14:10:52;10.50;99.90
31639;DHT22;18248;51.522;7.020;2022-12-28T14:13:52;10.50;99.90
31639;DHT22;18248;51.522;7.020;2022-12-28T14:16:51;10.50;99.90
31639;DHT22;18248;51.522;7.020;2022-12-28T14:19:51;10.50;99.90
31639;DHT22;18248;51.522;7.020;2022-12-28T14:22:49;10.60;99.90
31639;DHT22;18248;51.522;7.020;2022-12-28T14:25:49;10.60;99.90
31639;DHT22;18248;51.522;7.020;2022-12-28T14:28:51;10.60;99.90
31639;DHT22;18248;51.522;7.020;2022-12-28T14:31:56;10.60;99.90
31639;DHT22;18248;51.522;7.020;2022-12-28T14:34:57;10.60;99.90
31639;DHT22;18248;51.522;7.020;2022-12-28T14:37:58;10.50;99.90
31639;DHT22;18248;51.522;7.020;2022-12-28T14:40:59;10.60;99.90
31639;DHT22;18248;51.522;7.020;2022-12-28T14:44:01;10.60;99.90
31639;DHT22;18248;51.522;7.020;2022-12-28T14:47:00;10.60;99.90
31639;DHT22;18248;51.522;7.020;2022-12-28T14:50:01;10.60;99.90
31639;DHT22;18248;51.522;7.020;2022-12-28T14:53:08;10.60;99.90
31639;DHT22;18248;51.522;7.020;2022-12-28T14:56:11;10.60;99.90
31639;DHT22;18248;51.522;7.020;2022-12-28T14:59:32;10.60;99.90
31639;DHT22;18248;51.522;7.020;2022-12-28T15:05:36;10.60;99.90
31639;DHT22;18248;51.522;7.020;2022-12-28T15:08:35;10.70;99.90
31639;DHT22;18248;51.522;7.020;2022-12-28T15:11:33;10.60;99.90
31639;DHT22;18248;51.522;7.020;2022-12-28T15:14:33;10.60;99.90
31639;DHT22;18248;51.522;7.020;2022-12-28T15:17:31;10.60;99.90
31639;DHT22;18248;51.522;7.020;2022-12-28T15:20:30;10.70;99.90
31639;DHT22;18248;51.522;7.020;2022-12-28T15:23:29;10.60;99.90
31639;DHT22;18248;51.522;7.020;2022-12-28T15:26:27;10.60;99.90
31639;DHT22;18248;51.522;7.020;2022-12-28T15:29:27;10.70;99.90
31639;DHT22;18248;51.522;7.020;2022-12-28T15:32:26;10.60;99.90
31639;DHT22;18248;51.522;7.020;2022-12-28T15:35:28;10.60;99.90
31639;DHT22;18248;51.522;7.020;2022-12-28T15:38:27;10.60;99.90
31639;DHT22;18248;51.522;7.020;2022-12-28T15:41:25;10.60;99.90
31639;DHT22;18248;51.522;7.020;2022-12-28T15:44:42;10.60;99.90
31639;DHT22;18248;51.522;7.020;2022-12-28T15:47:43;10.60;99.90
31639;DHT22;18248;51.522;7.020;2022-12-28T15:50:42;10.60;99.90
31639;DHT22;18248;51.522;7.020;2022-12-28T15:53:41;10.60;99.90
31639;DHT22;18248;51.522;7.020;2022-12-28T15:56:40;10.60;99.90
31639;DHT22;18248;51.522;7.020;2022-12-28T15:59:39;10.60;99.90
31639;DHT22;18248;51.522;7.020;2022-12-28T16:02:37;10.60;99.90
31639;DHT22;18248;51.522;7.020;2022-12-28T16:05:36;10.60;99.90
31639;DHT22;18248;51.522;7.020;2022-12-28T16:08:34;10.60;99.90
31639;DHT22;18248;51.522;7.020;2022-12-28T16:11:33;10.60;99.90
31639;DHT22;18248;51.522;7.020;2022-12-28T16:14:33;10.60;99.90
31639;DHT22;18248;51.522;7.020;2022-12-28T16:17:33;10.60;99.90
31639;DHT22;18248;51.522;7.020;2022-12-28T16:20:31;10.60;99.90
31639;DHT22;18248;51.522;7.020;2022-12-28T16:23:33;10.70;99.90
31639;DHT22;18248;51.522;7.020;2022-12-28T16:26:32;10.70;99.90
31639;DHT22;18248;51.522;7.020;2022-12-28T16:29:31;10.70;99.90
31639;DHT22;18248;51.522;7.020;2022-12-28T16:32:30;10.70;99.90
31639;DHT22;18248;51.522;7.020;2022-12-28T16:35:29;10.70;99.90
31639;DHT22;18248;51.522;7.020;2022-12-28T16:38:27;10.70;99.90
31639;DHT22;18248;51.522;7.020;2022-12-28T16:41:26;10.70;99.90
31639;DHT22;18248;51.522;7.020;2022-12-28T16:44:25;10.70;99.90
31639;DHT22;18248;51.522;7.020;2022-12-28T16:47:25;10.70;99.90
31639;DHT22;18248;51.522;7.020;2022-12-28T16:50:23;10.70;99.90
31639;DHT22;18248;51.522;7.020;2022-12-28T16:53:22;10.70;99.90
31639;DHT22;18248;51.522;7.020;2022-12-28T16:56:21;10.70;99.90
31639;DHT22;18248;51.522;7.020;2022-12-28T16:59:22;10.70;99.90
31639;DHT22;18248;51.522;7.020;2022-12-28T17:02:25;10.70;99.90
31639;DHT22;18248;51.522;7.020;2022-12-28T17:05:23;10.70;99.90
31639;DHT22;18248;51.522;7.020;2022-12-28T17:08:22;10.70;99.90
31639;DHT22;18248;51.522;7.020;2022-12-28T17:11:20;10.70;99.90
31639;DHT22;18248;51.522;7.020;2022-12-28T17:14:19;10.70;99.90
31639;DHT22;18248;51.522;7.020;2022-12-28T17:17:18;10.60;99.90
31639;DHT22;18248;51.522;7.020;2022-12-28T17:20:16;10.60;99.90
31639;DHT22;18248;51.522;7.020;2022-12-28T17:23:16;10.60;99.90
31639;DHT22;18248;51.522;7.020;2022-12-28T17:26:15;10.50;99.90
31639;DHT22;18248;51.522;7.020;2022-12-28T17:29:13;10.50;99.90
31639;DHT22;18248;51.522;7.020;2022-12-28T17:32:14;10.40;99.90
31639;DHT22;18248;51.522;7.020;2022-12-28T17:35:13;10.40;99.90
31639;DHT22;18248;51.522;7.020;2022-12-28T17:38:12;10.40;99.90
31639;DHT22;18248;51.522;7.020;2022-12-28T17:41:15;10.30;99.90
31639;DHT22;18248;51.522;7.020;2022-12-28T17:44:14;10.30;99.90
31639;DHT22;18248;51.522;7.020;2022-12-28T17:47:13;10.20;99.90
31639;DHT22;18248;51.522;7.020;2022-12-28T17:50:12;10.20;99.90
31639;DHT22;18248;51.522;7.020;2022-12-28T17:53:10;10.20;99.90
31639;DHT22;18248;51.522;7.020;2022-12-28T17:56:12;10.10;99.90
31639;DHT22;18248;51.522;7.020;2022-12-28T17:59:12;10.10;99.90
31639;DHT22;18248;51.522;7.020;2022-12-28T18:02:12;10.10;99.90
31639;DHT22;18248;51.522;7.020;2022-12-28T18:05:10;10.00;99.90
31639;DHT22;18248;51.522;7.020;2022-12-28T18:08:09;10.00;99.90
31639;DHT22;18248;51.522;7.020;2022-12-28T18:11:08;10.00;99.90
31639;DHT22;18248;51.522;7.020;2022-12-28T18:14:10;9.90;99.90
31639;DHT22;18248;51.522;7.020;2022-12-28T18:17:10;9.90;99.90
31639;DHT22;18248;51.522;7.020;2022-12-28T18:20:08;9.80;99.90
31639;DHT22;18248;51.522;7.020;2022-12-28T18:23:07;9.80;99.90
31639;DHT22;18248;51.522;7.020;2022-12-28T18:26:11;9.80;99.90
31639;DHT22;18248;51.522;7.020;2022-12-28T18:29:09;9.80;99.90
31639;DHT22;18248;51.522;7.020;2022-12-28T18:32:08;9.80;99.90
31639;DHT22;18248;51.522;7.020;2022-12-28T18:35:07;9.90;99.90
31639;DHT22;18248;51.522;7.020;2022-12-28T18:38:06;9.80;99.90
31639;DHT22;18248;51.522;7.020;2022-12-28T18:41:05;9.80;99.90
31639;DHT22;18248;51.522;7.020;2022-12-28T18:44:03;9.80;99.90
31639;DHT22;18248;51.522;7.020;2022-12-28T18:47:02;9.80;99.90
31639;DHT22;18248;51.522;7.020;2022-12-28T18:50:01;9.80;99.90
31639;DHT22;18248;51.522;7.020;2022-12-28T18:53:00;9.80;99.90
31639;DHT22;18248;51.522;7.020;2022-12-28T18:56:01;9.80;99.90
31639;DHT22;18248;51.522;7.020;2022-12-28T18:59:00;9.80;99.90
31639;DHT22;18248;51.522;7.020;2022-12-28T19:01:58;9.70;99.90
31639;DHT22;18248;51.522;7.020;2022-12-28T19:04:57;9.70;99.90
31639;DHT22;18248;51.522;7.020;2022-12-28T19:07:56;9.70;99.90
31639;DHT22;18248;51.522;7.020;2022-12-28T19:10:55;9.70;99.90
31639;DHT22;18248;51.522;7.020;2022-12-28T19:13:54;9.70;99.90
31639;DHT22;18248;51.522;7.020;2022-12-28T19:16:53;9.70;99.90
31639;DHT22;18248;51.522;7.020;2022-12-28T19:19:51;9.70;99.90
31639;DHT22;18248;51.522;7.020;2022-12-28T19:22:50;9.70;99.90
31639;DHT22;18248;51.522;7.020;2022-12-28T19:25:49;9.70;99.90
31639;DHT22;18248;51.522;7.020;2022-12-28T19:28:47;9.60;99.90
31639;DHT22;18248;51.522;7.020;2022-12-28T19:31:46;9.60;99.90
31639;DHT22;18248;51.522;7.020;2022-12-28T19:34:45;9.60;99.90
31639;DHT22;18248;51.522;7.020;2022-12-28T19:37:43;9.60;99.90
31639;DHT22;18248;51.522;7.020;2022-12-28T19:40:42;9.60;99.90
31639;DHT22;18248;51.522;7.020;2022-12-28T19:43:41;9.60;99.90
31639;DHT22;18248;51.522;7.020;2022-12-28T19:46:40;9.60;99.90
31639;DHT22;18248;51.522;7.020;2022-12-28T19:49:39;9.60;99.90
31639;DHT22;18248;51.522;7.020;2022-12-28T19:52:37;9.60;99.90
31639;DHT22;18248;51.522;7.020;2022-12-28T19:55:36;9.60;99.90
31639;DHT22;18248;51.522;7.020;2022-12-28T19:58:36;9.60;99.90
31639;DHT22;18248;51.522;7.020;2022-12-28T20:01:37;9.60;99.90
31639;DHT22;18248;51.522;7.020;2022-12-28T20:04:36;9.60;99.90
31639;DHT22;18248;51.522;7.020;2022-12-28T20:07:38;9.60;99.90
31639;DHT22;18248;51.522;7.020;2022-12-28T20:10:37;9.60;99.90
31639;DHT22;18248;51.522;7.020;2022-12-28T20:13:35;9.70;99.90
31639;DHT22;18248;51.522;7.020;2022-12-28T20:16:34;9.70;99.90